Time;durP1;ratioP1;P1;durP2;ratioP2;P2;SDS_P1;SDS_P2;PMS_P1;PMS_P2;Temp;Humidity;BMP_temperature;BMP_pressure;BME280_temperature;BME280_humidity;BME280_pressure;Samples;Min_cycle;Max_cycle;Signal;HPM_P1;HPM_P2
2022/06/15 00:01:59;;;;;;;13.30;3.85;;;11.80;69.80;;;;;;4100314;28;20069;-84
2022/06/15 00:04:02;;;;;;;9.32;3.88;;;11.80;70.00;;;;;;4097585;28;20019;-84
2022/06/15 00:06:17;;;;;;;14.63;4.05;;;11.80;70.00;;;;;;4095371;28;20030;-84
2022/06/15 00:08:18;;;;;;;8.38;4.30;;;11.80;70.30;;;;;;4097866;28;20042;-84
2022/06/15 00:10:20;;;;;;;6.13;3.42;;;11.70;70.10;;;;;;4098717;28;20027;-84
2022/06/15 00:12:21;;;;;;;10.02;3.90;;;11.70;70.00;;;;;;4100174;28;20042;-85
2022/06/15 00:14:25;;;;;;;7.45;3.97;;;11.70;70.10;;;;;;4099282;28;20030;-84
2022/06/15 00:16:26;;;;;;;10.65;3.70;;;11.70;70.30;;;;;;4097768;28;20073;-84
2022/06/15 00:18:28;;;;;;;8.05;3.80;;;11.70;70.30;;;;;;4096441;28;20526;-84
2022/06/15 00:20:28;;;;;;;11.30;4.40;;;11.60;70.30;;;;;;4094329;28;20028;-84
2022/06/15 00:22:29;;;;;;;9.63;3.90;;;11.60;70.40;;;;;;4095871;28;20054;-84
2022/06/15 00:24:30;;;;;;;10.48;4.10;;;11.60;70.40;;;;;;4100296;28;20090;-84
2022/06/15 00:26:30;;;;;;;11.05;5.03;;;11.60;70.40;;;;;;4096331;28;20035;-84
2022/06/15 00:28:32;;;;;;;12.00;4.13;;;11.60;70.50;;;;;;4084366;28;20247;-84
2022/06/15 00:30:36;;;;;;;11.55;4.43;;;11.50;70.60;;;;;;4095185;28;20038;-84
2022/06/15 00:32:36;;;;;;;7.45;3.75;;;11.50;70.70;;;;;;4098274;28;20023;-84
2022/06/15 00:34:38;;;;;;;8.75;3.97;;;11.50;70.80;;;;;;4098249;28;20038;-84
2022/06/15 00:36:38;;;;;;;13.15;5.25;;;11.60;71.60;;;;;;4098802;28;20121;-84
2022/06/15 00:38:42;;;;;;;12.23;4.53;;;11.50;71.00;;;;;;4096214;28;20101;-84
2022/06/15 00:40:42;;;;;;;13.25;4.50;;;11.50;71.00;;;;;;4098643;28;20048;-84
2022/06/15 00:43:03;;;;;;;8.75;4.22;;;11.50;71.10;;;;;;4101122;28;20073;-84
2022/06/15 00:45:24;;;;;;;13.93;4.47;;;11.50;71.20;;;;;;4097580;28;20094;-83
2022/06/15 00:47:45;;;;;;;10.63;4.85;;;11.40;71.20;;;;;;4101269;28;20035;-84
2022/06/15 00:50:18;;;;;;;14.23;5.07;;;11.40;71.20;;;;;;4099863;28;20549;-84
2022/06/15 00:52:59;;;;;;;13.48;4.88;;;11.40;71.40;;;;;;4099166;28;20105;-83
2022/06/15 00:55:27;;;;;;;14.60;4.85;;;11.40;71.50;;;;;;4102010;28;20060;-83
2022/06/15 00:57:48;;;;;;;8.82;4.63;;;11.40;71.50;;;;;;4101681;28;20034;-83
2022/06/15 01:00:12;;;;;;;12.80;5.50;;;11.40;71.50;;;;;;4100579;28;20043;-84
2022/06/15 01:02:13;;;;;;;12.52;5.30;;;11.30;71.50;;;;;;4098509;28;20050;-84
2022/06/15 01:04:14;;;;;;;12.23;4.95;;;11.30;71.60;;;;;;4096408;28;20035;-84
2022/06/15 01:06:33;;;;;;;10.73;4.90;;;11.30;72.60;;;;;;4103432;28;20050;-83
2022/06/15 01:09:00;;;;;;;10.43;5.07;;;11.30;72.10;;;;;;4100176;28;20031;-84
2022/06/15 01:11:10;;;;;;;10.23;5.22;;;11.30;72.00;;;;;;4101290;28;20027;-83
2022/06/15 01:13:29;;;;;;;20.13;5.20;;;11.30;71.90;;;;;;4095474;28;20042;-84
2022/06/15 01:15:56;;;;;;;13.15;5.15;;;11.20;72.00;;;;;;4098425;28;20846;-83
2022/06/15 01:18:20;;;;;;;8.93;5.20;;;11.20;72.20;;;;;;4113347;28;20031;-83
2022/06/15 01:20:21;;;;;;;;;;;11.10;72.30;;;;;;4091041;28;20559;-83
2022/06/15 01:22:44;;;;;;;8.88;4.43;;;11.10;73.00;;;;;;4096460;28;20032;-84
2022/06/15 01:25:11;;;;;;;10.40;4.50;;;11.10;72.00;;;;;;4097023;28;20042;-83
2022/06/15 01:27:39;;;;;;;16.52;5.95;;;11.10;72.20;;;;;;4066042;28;20113;-84
2022/06/15 01:29:55;;;;;;;9.55;4.38;;;11.10;72.10;;;;;;4098537;28;20063;-84
2022/06/15 01:32:11;;;;;;;11.27;5.15;;;11.10;72.00;;;;;;4099223;28;20031;-84
2022/06/15 01:34:40;;;;;;;9.80;4.88;;;11.00;72.00;;;;;;4113127;28;20026;-84
2022/06/15 01:37:21;;;;;;;11.07;4.72;;;11.00;72.50;;;;;;4100318;28;20019;-83
2022/06/15 01:39:31;;;;;;;9.38;4.28;;;11.00;72.50;;;;;;4097054;28;20220;-83
2022/06/15 01:42:02;;;;;;;12.45;4.60;;;11.00;72.20;;;;;;4097115;28;20028;-82
2022/06/15 01:44:18;;;;;;;11.85;4.50;;;11.00;72.40;;;;;;4101395;28;20030;-83
2022/06/15 01:46:20;;;;;;;9.50;5.10;;;10.90;72.30;;;;;;4100658;28;20057;-83
2022/06/15 01:48:22;;;;;;;9.75;4.82;;;11.00;72.30;;;;;;4102151;28;20039;-82
2022/06/15 01:50:26;;;;;;;9.32;4.63;;;10.90;72.30;;;;;;4105847;28;20027;-82
2022/06/15 01:52:38;;;;;;;12.60;5.10;;;10.90;72.40;;;;;;4099184;28;20058;-82
2022/06/15 01:54:48;;;;;;;11.75;5.28;;;10.90;72.50;;;;;;4094267;28;20027;-82
2022/06/15 01:56:52;;;;;;;12.48;5.07;;;10.90;72.70;;;;;;4099708;28;20030;-83
2022/06/15 01:59:19;;;;;;;9.25;5.00;;;10.90;72.70;;;;;;4100723;28;20380;-83
2022/06/15 02:01:58;;;;;;;14.65;5.65;;;10.80;73.10;;;;;;4082296;28;20039;-83
2022/06/15 02:04:04;;;;;;;13.00;5.10;;;10.80;73.30;;;;;;4069297;29;20047;-83
2022/06/15 02:06:21;;;;;;;13.32;5.07;;;10.80;72.80;;;;;;4067657;29;20039;-83
2022/06/15 02:08:31;;;;;;;15.32;5.40;;;10.70;72.80;;;;;;4069906;29;20130;-83
2022/06/15 02:10:38;;;;;;;12.13;5.15;;;10.70;73.00;;;;;;4072636;29;20028;-83
2022/06/15 02:13:01;;;;;;;11.48;5.53;;;10.80;73.00;;;;;;4066155;29;20146;-83
2022/06/15 02:15:04;;;;;;;8.07;4.70;;;10.70;73.30;;;;;;4066496;29;20500;-82
2022/06/15 02:17:13;;;;;;;11.35;5.35;;;10.70;73.10;;;;;;4054287;29;20452;-83
2022/06/15 02:19:17;;;;;;;15.23;5.55;;;10.70;73.10;;;;;;4071384;29;20036;-83
2022/06/15 02:21:20;;;;;;;13.57;5.45;;;10.70;73.20;;;;;;4071061;29;20607;-83
2022/06/15 02:23:23;;;;;;;20.10;5.88;;;10.70;73.30;;;;;;4067033;29;20035;-82
2022/06/15 02:25:28;;;;;;;12.43;5.75;;;10.60;73.30;;;;;;4037044;29;20041;-83
2022/06/15 02:27:31;;;;;;;10.55;5.13;;;10.60;73.40;;;;;;4070939;29;20035;-82
2022/06/15 02:29:34;;;;;;;11.75;5.40;;;10.60;73.40;;;;;;4054915;29;20050;-82
2022/06/15 02:31:37;;;;;;;15.77;5.10;;;10.60;73.50;;;;;;4063660;29;20115;-83
2022/06/15 02:33:45;;;;;;;14.05;5.05;;;10.60;73.70;;;;;;4063430;29;20122;-82
2022/06/15 02:35:46;;;;;;;8.10;4.63;;;10.60;73.70;;;;;;4070182;29;20032;-83
2022/06/15 02:37:48;;;;;;;11.00;5.03;;;10.60;73.80;;;;;;4069746;29;20043;-83
2022/06/15 02:39:49;;;;;;;10.80;4.97;;;10.60;74.00;;;;;;4080949;28;20047;-83
2022/06/15 02:42:03;;;;;;;11.77;4.90;;;10.60;74.10;;;;;;4099984;28;20772;-83
2022/06/15 02:44:06;;;;;;;10.73;5.75;;;10.60;74.20;;;;;;4100107;28;20043;-83
2022/06/15 02:46:12;;;;;;;14.52;4.70;;;10.60;74.10;;;;;;4096281;28;20098;-83
2022/06/15 02:48:14;;;;;;;10.75;4.80;;;10.60;74.20;;;;;;4098489;28;20058;-83
2022/06/15 02:50:20;;;;;;;14.93;5.10;;;10.50;74.10;;;;;;4097114;28;20459;-83
2022/06/15 02:52:24;;;;;;;11.00;4.22;;;10.50;74.20;;;;;;4096542;28;20034;-84
2022/06/15 02:54:47;;;;;;;9.85;4.57;;;10.50;74.20;;;;;;4095908;28;20038;-83
2022/06/15 02:56:48;;;;;;;10.10;4.30;;;10.60;74.30;;;;;;4099113;28;20500;-83
2022/06/15 02:58:51;;;;;;;11.02;4.95;;;10.50;74.30;;;;;;4087203;28;20035;-83
2022/06/15 03:00:52;;;;;;;13.55;5.15;;;10.50;75.10;;;;;;4094492;28;20030;-83
2022/06/15 03:02:52;;;;;;;14.68;5.45;;;10.60;74.40;;;;;;4100361;28;20031;-83
2022/06/15 03:04:53;;;;;;;19.08;5.38;;;10.50;74.30;;;;;;4087040;28;20027;-83
2022/06/15 03:06:54;;;;;;;8.23;4.40;;;10.50;74.40;;;;;;4098250;28;20054;-83
2022/06/15 03:08:57;;;;;;;9.15;4.53;;;10.50;74.30;;;;;;4092737;28;20400;-83
2022/06/15 03:11:01;;;;;;;15.25;4.88;;;10.50;74.40;;;;;;4102198;28;20034;-83
2022/06/15 03:13:01;;;;;;;13.63;4.85;;;10.50;74.40;;;;;;4096411;28;21896;-84
2022/06/15 03:15:02;;;;;;;13.50;4.78;;;10.50;74.40;;;;;;4103543;28;20153;-83
2022/06/15 03:17:03;;;;;;;9.02;4.15;;;10.50;74.40;;;;;;4098520;28;20030;-82
2022/06/15 03:19:04;;;;;;;13.95;4.63;;;10.50;74.40;;;;;;4110055;28;20090;-83
2022/06/15 03:21:05;;;;;;;12.07;5.40;;;10.50;74.40;;;;;;4103299;28;20035;-82
2022/06/15 03:23:06;;;;;;;11.82;5.15;;;10.40;74.40;;;;;;4096359;28;20042;-83
2022/06/15 03:25:07;;;;;;;8.65;5.10;;;10.50;74.40;;;;;;4097077;28;20038;-83
2022/06/15 03:27:08;;;;;;;12.82;4.60;;;10.40;74.30;;;;;;4097020;28;20678;-83
2022/06/15 03:29:09;;;;;;;10.88;4.72;;;10.40;74.20;;;;;;4098431;28;20030;-83
2022/06/15 03:31:09;;;;;;;8.73;4.38;;;10.40;74.20;;;;;;4100960;28;20031;-83
2022/06/15 03:33:10;;;;;;;5.63;3.75;;;10.40;74.20;;;;;;4094217;28;20090;-83
2022/06/15 03:35:12;;;;;;;9.52;4.22;;;10.40;74.30;;;;;;4096856;28;20042;-83
2022/06/15 03:37:12;;;;;;;10.88;5.00;;;10.40;74.40;;;;;;4101712;28;20034;-83
2022/06/15 03:39:13;;;;;;;12.43;4.97;;;10.40;74.40;;;;;;4094556;28;20026;-83
2022/06/15 03:41:15;;;;;;;10.57;4.82;;;10.40;74.60;;;;;;4086069;28;20045;-84
2022/06/15 03:43:17;;;;;;;14.82;5.20;;;10.40;74.80;;;;;;4100569;28;20037;-83
2022/06/15 03:45:18;;;;;;;15.52;5.18;;;10.40;75.00;;;;;;4097357;28;20107;-82
2022/06/15 03:47:19;;;;;;;10.32;5.32;;;10.40;75.10;;;;;;4099454;28;20023;-83
2022/06/15 03:49:19;;;;;;;10.90;4.97;;;10.40;75.30;;;;;;4101966;28;20042;-82
2022/06/15 03:51:20;;;;;;;10.13;5.13;;;10.40;75.50;;;;;;4102420;28;20041;-82
2022/06/15 03:53:21;;;;;;;10.88;5.30;;;10.50;76.10;;;;;;4102995;28;20483;-82
2022/06/15 03:55:22;;;;;;;17.08;4.82;;;10.50;76.90;;;;;;4100854;28;20030;-82
2022/06/15 03:57:22;;;;;;;21.35;5.70;;;10.60;77.00;;;;;;4105537;28;20042;-82
2022/06/15 03:59:24;;;;;;;16.35;5.43;;;10.60;77.40;;;;;;4100277;28;20109;-81
2022/06/15 04:01:25;;;;;;;19.50;5.35;;;10.70;77.70;;;;;;4093718;28;20391;-82
2022/06/15 04:03:25;;;;;;;16.45;5.32;;;10.80;77.70;;;;;;4102555;28;20089;-83
2022/06/15 04:05:34;;;;;;;14.57;6.72;;;10.80;77.80;;;;;;4097991;28;20027;-83
2022/06/15 04:09:54;;;;;;;14.65;5.57;;;11.00;78.30;;;;;;4099720;28;20407;-83
2022/06/15 04:12:15;;;;;;;13.75;5.07;;;11.10;78.40;;;;;;4113387;28;20035;-83
2022/06/15 04:14:36;;;;;;;14.00;5.22;;;11.10;78.50;;;;;;4105326;28;20078;-82
2022/06/15 04:16:58;;;;;;;16.85;5.97;;;11.20;78.60;;;;;;4101372;28;20023;-83
2022/06/15 04:19:23;;;;;;;11.35;5.78;;;11.30;78.60;;;;;;4100063;28;20130;-83
2022/06/15 04:21:44;;;;;;;16.98;5.47;;;11.40;78.80;;;;;;4103499;28;20042;-82
2022/06/15 04:24:07;;;;;;;14.23;5.97;;;11.50;78.90;;;;;;4103289;28;20138;-83
2022/06/15 04:26:28;;;;;;;15.10;5.05;;;11.60;79.90;;;;;;4107078;28;20096;-84
2022/06/15 04:28:49;;;;;;;10.75;5.32;;;11.70;79.20;;;;;;4108598;28;20031;-84
2022/06/15 04:31:09;;;;;;;14.75;4.53;;;11.80;79.20;;;;;;4100921;28;20098;-84
2022/06/15 04:33:30;;;;;;;13.65;4.70;;;11.90;79.10;;;;;;4106962;28;20039;-84
2022/06/15 04:35:51;;;;;;;16.83;5.63;;;12.00;79.20;;;;;;4108567;28;20070;-84
2022/06/15 04:38:12;;;;;;;15.05;4.68;;;12.20;79.60;;;;;;4107242;28;20035;-84
2022/06/15 04:40:34;;;;;;;16.95;5.78;;;12.30;79.60;;;;;;4108216;28;20483;-84
2022/06/15 04:42:56;;;;;;;14.93;4.30;;;12.40;79.40;;;;;;4109310;28;20062;-84
2022/06/15 04:45:18;;;;;;;19.70;4.68;;;12.50;79.40;;;;;;4110586;28;20206;-83
2022/06/15 04:47:39;;;;;;;16.73;4.57;;;12.70;79.10;;;;;;4102385;28;20042;-83
2022/06/15 04:49:59;;;;;;;10.30;4.28;;;12.80;78.90;;;;;;4104124;28;20595;-84
2022/06/15 04:52:20;;;;;;;10.07;3.72;;;12.90;78.80;;;;;;4105113;28;20157;-84
2022/06/15 04:54:40;;;;;;;17.98;4.60;;;13.10;79.10;;;;;;4105273;28;20129;-84
2022/06/15 04:57:01;;;;;;;15.20;4.50;;;13.20;77.90;;;;;;4106216;28;20039;-84
2022/06/15 04:59:22;;;;;;;10.95;4.15;;;13.30;77.30;;;;;;4104248;28;20037;-85
2022/06/15 05:01:43;;;;;;;14.90;4.72;;;13.50;76.80;;;;;;4103914;28;20038;-88
2022/06/15 05:04:03;;;;;;;9.55;3.53;;;13.50;76.20;;;;;;4104831;28;20086;-88
2022/06/15 05:06:27;;;;;;;14.68;3.28;;;13.70;76.00;;;;;;4108427;28;20566;-88
2022/06/15 05:09:22;;;;;;;17.83;4.03;;;13.70;75.40;;;;;;4099844;28;20039;-87
2022/06/15 05:11:33;;;;;;;;;;;;;;;;;;;;;
2022/06/15 05:14:13;;;;;;;17.30;3.78;;;14.00;75.20;;;;;;4104129;28;20045;-88
2022/06/15 05:16:14;;;;;;;9.70;4.20;;;14.00;74.50;;;;;;4104761;28;20027;-88
2022/06/15 05:18:14;;;;;;;15.70;4.70;;;14.00;74.40;;;;;;4102395;28;20126;-88
2022/06/15 05:20:30;;;;;;;23.50;9.60;;;14.20;74.50;;;;;;4103807;28;20019;-90
2022/06/15 05:22:34;;;;;;;10.70;4.22;;;14.20;74.00;;;;;;4106068;28;20031;-88
2022/06/15 05:24:41;;;;;;;16.35;4.38;;;14.30;73.40;;;;;;4102237;28;20077;-88
2022/06/15 05:26:45;;;;;;;12.75;4.43;;;14.30;73.00;;;;;;4106331;28;20440;-87
2022/06/15 05:29:19;;;;;;;10.73;3.47;;;14.40;72.90;;;;;;4101508;28;20039;-88
2022/06/15 05:31:29;;;;;;;13.00;3.47;;;14.50;73.00;;;;;;4089636;28;20082;-88
2022/06/15 05:33:40;;;;;;;13.27;3.22;;;14.60;72.50;;;;;;4085758;28;20031;-88
2022/06/15 05:36:02;;;;;;;11.35;2.70;;;14.60;72.30;;;;;;4103640;28;20030;-89
2022/06/15 05:38:06;;;;;;;11.70;2.60;;;14.70;72.20;;;;;;4084293;28;21084;-89
2022/06/15 05:40:08;;;;;;;15.05;3.33;;;14.70;72.00;;;;;;4098434;28;20031;-90
2022/06/15 05:42:12;;;;;;;10.70;2.72;;;14.80;71.70;;;;;;4086951;28;20039;-90
2022/06/15 05:44:34;;;;;;;16.02;2.97;;;14.80;71.40;;;;;;4088118;28;20031;-91
2022/06/15 05:46:40;;;;;;;9.80;2.70;;;14.80;71.10;;;;;;4089008;28;20130;-89
2022/06/15 05:48:47;;;;;;;15.95;3.13;;;14.90;70.90;;;;;;4104211;28;20042;-90
2022/06/15 05:50:51;;;;;;;12.77;2.83;;;15.00;70.90;;;;;;4089962;28;20657;-90
2022/06/15 05:53:03;;;;;;;12.50;2.70;;;15.00;70.90;;;;;;4101893;28;20031;-89
2022/06/15 05:55:21;;;;;;;11.80;2.28;;;15.10;70.70;;;;;;4106960;28;20094;-90
2022/06/15 05:57:36;;;;;;;10.65;2.08;;;15.10;70.20;;;;;;4099884;28;20023;-89
2022/06/15 05:59:42;;;;;;;16.08;2.33;;;15.20;69.90;;;;;;4085573;28;20130;-88
2022/06/15 06:01:59;;;;;;;8.15;2.00;;;15.20;69.40;;;;;;4092124;28;20145;-88
2022/06/15 06:04:50;;;;;;;7.13;1.80;;;15.30;69.30;;;;;;4094271;28;20735;-88
2022/06/15 06:07:24;;;;;;;6.97;1.80;;;15.30;68.90;;;;;;4084590;28;20047;-88
2022/06/15 06:09:24;;;;;;;8.30;1.60;;;15.30;68.80;;;;;;4102961;28;20030;-89
2022/06/15 06:11:55;;;;;;;9.85;1.92;;;15.40;68.60;;;;;;4105563;28;20124;-89
2022/06/15 06:14:10;;;;;;;7.47;1.63;;;15.50;67.80;;;;;;4103968;28;20023;-88
2022/06/15 06:16:23;;;;;;;10.50;1.80;;;15.50;67.20;;;;;;4103066;28;20270;-89
2022/06/15 06:18:55;;;;;;;9.30;1.95;;;15.50;67.00;;;;;;4102867;28;20617;-90
2022/06/15 06:21:43;;;;;;;12.98;2.30;;;15.50;66.70;;;;;;4097125;28;20053;-89
2022/06/15 06:23:56;;;;;;;5.28;1.52;;;15.60;66.00;;;;;;4091850;28;20102;-90
2022/06/15 06:25:57;;;;;;;13.18;2.17;;;15.60;65.60;;;;;;4100407;28;20046;-88
2022/06/15 06:28:30;;;;;;;7.47;2.03;;;15.60;65.80;;;;;;4105727;28;20030;-89
2022/06/15 06:30:44;;;;;;;6.60;1.85;;;15.60;65.10;;;;;;4093529;28;20407;-89
2022/06/15 06:33:21;;;;;;;8.70;1.92;;;15.70;65.70;;;;;;4103331;28;20019;-89
2022/06/15 06:35:36;;;;;;;8.98;1.95;;;15.70;64.60;;;;;;4097127;28;20434;-89
2022/06/15 06:37:40;;;;;;;8.48;1.90;;;15.70;64.30;;;;;;4090702;28;20134;-88
2022/06/15 06:40:25;;;;;;;7.75;2.15;;;15.70;64.00;;;;;;4103901;28;20691;-89
2022/06/15 06:42:44;;;;;;;5.25;1.45;;;15.70;63.50;;;;;;4024244;29;20265;-90
2022/06/15 06:45:17;;;;;;;9.85;1.60;;;15.70;63.80;;;;;;4035803;29;20036;-89
2022/06/15 06:47:27;;;;;;;10.13;1.85;;;15.70;64.20;;;;;;4047769;29;20043;-89
2022/06/15 06:50:29;;;;;;;9.43;1.90;;;15.70;64.60;;;;;;4044699;29;20067;-92
2022/06/15 06:53:00;;;;;;;8.30;1.60;;;15.70;63.80;;;;;;3992012;29;20034;-88
2022/06/15 06:55:38;;;;;;;6.55;1.33;;;15.80;64.00;;;;;;4010400;29;20086;-90
2022/06/15 06:57:42;;;;;;;8.18;2.00;;;15.90;64.20;;;;;;4026173;23;20076;-85
2022/06/15 06:59:42;;;;;;;8.98;1.83;;;15.90;63.20;;;;;;4125681;28;21751;-85
2022/06/15 07:01:45;;;;;;;11.95;1.95;;;16.00;62.90;;;;;;4120271;28;20034;-85
2022/06/15 07:03:49;;;;;;;10.10;1.80;;;16.00;63.00;;;;;;4117795;28;20034;-85
2022/06/15 07:06:00;;;;;;;7.00;1.67;;;16.00;63.20;;;;;;4110109;28;20023;-85
2022/06/15 07:08:00;;;;;;;7.47;1.75;;;16.10;63.40;;;;;;4106678;28;20026;-84
2022/06/15 07:10:01;;;;;;;6.43;1.58;;;16.10;63.30;;;;;;4107796;28;20508;-85
2022/06/15 07:12:04;;;;;;;8.60;2.15;;;16.20;63.00;;;;;;4114779;28;20031;-86
2022/06/15 07:14:05;;;;;;;5.47;1.50;;;16.30;62.20;;;;;;4120455;28;20074;-85
2022/06/15 07:16:11;;;;;;;4.85;1.42;;;16.30;61.70;;;;;;4099509;28;20086;-85
2022/06/15 07:18:11;;;;;;;8.20;1.50;;;16.40;61.40;;;;;;4129643;28;20109;-86
2022/06/15 07:20:12;;;;;;;7.82;1.40;;;16.40;61.30;;;;;;4134577;28;20037;-85
2022/06/15 07:22:13;;;;;;;9.80;1.95;;;16.40;61.10;;;;;;4119866;28;20034;-85
2022/06/15 07:24:14;;;;;;;5.97;1.58;;;16.50;61.20;;;;;;4104824;28;20104;-86
2022/06/15 07:26:21;;;;;;;5.13;1.30;;;16.50;60.70;;;;;;4110018;28;20113;-85
2022/06/15 07:28:25;;;;;;;8.73;1.50;;;16.50;60.40;;;;;;4124015;28;20042;-85
2022/06/15 07:30:29;;;;;;;;;;;16.60;60.20;;;;;;4111024;28;20035;-85
2022/06/15 07:32:38;;;;;;;4.60;1.50;;;16.60;59.90;;;;;;4113430;28;20032;-86
2022/06/15 07:34:39;;;;;;;4.18;1.20;;;16.70;59.40;;;;;;4112660;28;20038;-86
2022/06/15 07:36:48;;;;;;;5.47;1.25;;;16.70;58.60;;;;;;4113848;28;20054;-85
2022/06/15 07:38:51;;;;;;;2.53;1.02;;;16.70;58.10;;;;;;4111659;28;20031;-87
2022/06/15 07:40:51;;;;;;;4.07;1.30;;;16.70;57.90;;;;;;4112875;28;20054;-86
2022/06/15 07:42:54;;;;;;;4.40;1.30;;;16.70;57.90;;;;;;4112200;28;20523;-86
2022/06/15 07:44:58;;;;;;;4.57;1.42;;;16.70;58.00;;;;;;4107369;28;20030;-85
2022/06/15 07:51:56;;;;;;;7.82;1.80;;;16.80;58.10;;;;;;4111444;28;20077;-85
2022/06/15 07:53:58;;;;;;;3.92;1.38;;;16.80;58.00;;;;;;4108700;28;20090;-84
2022/06/15 07:56:07;;;;;;;7.32;1.67;;;16.90;58.40;;;;;;4115917;28;20038;-86
2022/06/15 07:58:25;;;;;;;6.22;1.23;;;16.90;58.20;;;;;;4131884;28;20053;-85
2022/06/15 08:00:33;;;;;;;7.00;1.45;;;17.00;58.10;;;;;;4117155;28;20161;-85
2022/06/15 08:07:29;;;;;;;4.13;1.48;;;17.00;57.20;;;;;;4083866;29;20028;-85
2022/06/15 08:09:53;;;;;;;2.83;1.35;;;17.20;57.50;;;;;;4075869;29;20175;-86
2022/06/15 08:12:18;;;;;;;4.75;1.65;;;17.20;57.50;;;;;;4032310;29;20128;-86
2022/06/15 08:14:18;;;;;;;4.40;1.30;;;17.30;57.40;;;;;;4030855;29;20196;-85
2022/06/15 08:16:29;;;;;;;6.38;1.50;;;17.30;57.50;;;;;;4015059;29;20049;-84
2022/06/15 08:18:40;;;;;;;7.35;1.92;;;17.30;56.90;;;;;;4027485;29;20037;-85
2022/06/15 08:21:01;;;;;;;3.80;1.70;;;17.30;56.80;;;;;;4022019;29;20081;-84
2022/06/15 08:23:10;;;;;;;4.20;0.93;;;17.30;56.50;;;;;;4020174;29;20052;-85
2022/06/15 08:25:24;;;;;;;4.70;1.33;;;17.40;56.50;;;;;;4001848;29;20042;-85
2022/06/15 08:27:26;;;;;;;4.72;1.48;;;17.40;56.50;;;;;;4001908;29;20092;-85
2022/06/15 08:29:37;;;;;;;5.50;1.40;;;17.50;56.90;;;;;;4004922;29;20038;-86
2022/06/15 08:31:47;;;;;;;7.20;1.65;;;17.60;57.10;;;;;;4004081;29;20488;-84
2022/06/15 08:33:58;;;;;;;5.45;1.40;;;17.70;57.30;;;;;;4011787;29;20053;-85
2022/06/15 08:36:28;;;;;;;8.73;1.90;;;17.90;57.30;;;;;;4001369;29;20595;-86
2022/06/15 08:38:40;;;;;;;6.07;1.58;;;17.90;56.90;;;;;;4003299;29;20042;-85
2022/06/15 08:41:23;;;;;;;6.32;1.48;;;18.00;56.50;;;;;;3999513;29;20079;-85
2022/06/15 08:44:35;;;;;;;5.60;1.88;;;18.10;56.00;;;;;;4018370;29;20036;-85
2022/06/15 08:47:53;;;;;;;8.82;1.90;;;18.30;55.20;;;;;;3999806;29;20054;-85
2022/06/15 08:56:34;;;;;;;6.43;1.38;;;18.70;53.50;;;;;;4123707;28;20109;-85
2022/06/15 08:59:07;;;;;;;4.10;1.23;;;18.80;52.60;;;;;;4064058;29;20043;-85
2022/06/15 09:01:41;;;;;;;5.78;1.70;;;18.90;52.70;;;;;;4080252;29;20031;-85
2022/06/15 09:04:38;;;;;;;7.25;1.85;;;19.00;51.40;;;;;;4131832;23;20071;-90
2022/06/15 09:07:39;;;;;;;6.35;1.50;;;19.10;51.30;;;;;;4109667;28;20034;-89
2022/06/15 09:10:24;;;;;;;4.30;1.50;;;19.20;50.90;;;;;;4090356;28;20125;-89
2022/06/15 09:13:05;;;;;;;7.13;1.65;;;19.20;51.10;;;;;;4091785;28;20027;-89
2022/06/15 09:15:43;;;;;;;10.10;1.40;;;19.10;50.10;;;;;;4096877;28;20158;-89
2022/06/15 09:18:30;;;;;;;5.50;1.17;;;19.10;50.40;;;;;;4103528;28;20567;-91
2022/06/15 09:21:02;;;;;;;6.05;1.48;;;18.90;50.60;;;;;;4110710;28;20150;-90
2022/06/15 09:23:41;;;;;;;8.50;1.63;;;18.80;49.90;;;;;;4092091;28;20042;-89
2022/06/15 09:25:54;;;;;;;4.25;1.20;;;18.70;50.30;;;;;;4073644;29;20530;-90
2022/06/15 09:28:05;;;;;;;3.63;1.08;;;18.60;50.50;;;;;;4075625;29;20080;-89
2022/06/15 09:30:15;;;;;;;3.58;1.30;;;18.50;50.60;;;;;;4073827;29;20038;-90
2022/06/15 09:32:39;;;;;;;4.45;0.90;;;18.50;50.60;;;;;;4075208;29;20078;-88
2022/06/15 09:34:58;;;;;;;10.65;1.35;;;18.40;50.30;;;;;;4086402;28;20031;-89
2022/06/15 09:39:32;;;;;;;4.47;1.30;;;18.20;50.00;;;;;;4142675;23;20070;-86
2022/06/15 09:41:54;;;;;;;6.18;1.20;;;18.20;50.50;;;;;;4121420;28;20113;-85
2022/06/15 09:44:42;;;;;;;5.07;1.17;;;18.20;50.80;;;;;;4114558;28;20050;-86
2022/06/15 09:47:15;;;;;;;8.30;1.25;;;18.20;50.60;;;;;;4078826;29;20536;-87
2022/06/15 09:49:28;;;;;;;9.43;1.58;;;18.20;50.20;;;;;;4124365;28;20547;-86
2022/06/15 09:51:58;;;;;;;3.63;0.90;;;18.20;50.40;;;;;;4142017;28;20440;-85
2022/06/15 09:54:36;;;;;;;7.68;1.25;;;18.30;49.60;;;;;;4125083;28;20592;-85
2022/06/15 09:56:40;;;;;;;3.33;1.13;;;18.30;49.70;;;;;;4132626;28;20040;-86
2022/06/15 09:58:50;;;;;;;7.38;1.38;;;18.30;50.00;;;;;;4130404;28;20559;-86
2022/06/15 10:01:22;;;;;;;5.38;1.20;;;18.40;50.30;;;;;;4130438;28;20173;-85
2022/06/15 10:03:39;;;;;;;6.15;1.17;;;18.40;50.10;;;;;;4124805;28;20106;-87
2022/06/15 10:05:43;;;;;;;4.72;1.15;;;18.50;50.70;;;;;;4130215;28;20471;-86
2022/06/15 10:07:51;;;;;;;5.80;1.48;;;18.50;50.70;;;;;;4123821;28;20046;-85
2022/06/15 10:10:14;;;;;;;4.40;1.25;;;18.50;50.60;;;;;;4128780;28;20233;-84
2022/06/15 10:12:58;;;;;;;5.22;1.27;;;18.60;50.70;;;;;;4125387;28;20030;-85
2022/06/15 10:15:25;;;;;;;7.65;1.25;;;18.70;50.30;;;;;;4129260;28;20109;-86
2022/06/15 10:17:40;;;;;;;3.20;1.23;;;18.80;50.90;;;;;;4131802;28;20084;-85
2022/06/15 10:20:22;;;;;;;3.72;1.00;;;19.00;48.70;;;;;;4128107;28;20531;-86
2022/06/15 10:22:38;;;;;;;5.45;1.30;;;19.00;46.70;;;;;;4125951;28;20034;-85
2022/06/15 10:24:49;;;;;;;3.90;1.10;;;19.10;46.90;;;;;;4128702;28;20034;-85
2022/06/15 10:27:14;;;;;;;3.95;1.10;;;19.20;46.20;;;;;;4112599;28;20453;-86
2022/06/15 10:29:56;;;;;;;4.90;1.20;;;19.20;46.00;;;;;;4064035;28;20046;-85
2022/06/15 10:32:00;;;;;;;5.25;1.40;;;19.30;44.80;;;;;;4128371;28;20089;-85
2022/06/15 10:34:21;;;;;;;5.88;1.35;;;19.40;45.90;;;;;;4122234;28;20019;-84
2022/06/15 10:36:37;;;;;;;4.25;1.10;;;19.40;46.30;;;;;;4141052;28;20030;-84
2022/06/15 10:38:42;;;;;;;3.33;0.95;;;19.40;46.80;;;;;;4145614;28;20034;-85
2022/06/15 10:43:33;;;;;;;2.42;0.70;;;19.40;47.20;;;;;;4146966;28;20590;-85
2022/06/15 10:46:23;;;;;;;2.97;0.77;;;19.30;47.10;;;;;;4125494;28;20030;-85
2022/06/15 10:51:37;;;;;;;3.90;0.80;;;19.30;47.10;;;;;;4145656;28;20026;-85
2022/06/15 10:54:30;;;;;;;3.63;1.10;;;19.20;47.00;;;;;;4144962;28;20026;-85
2022/06/15 11:02:18;;;;;;;5.13;0.80;;;19.00;47.50;;;;;;4145072;28;20053;-85
2022/06/15 11:04:45;;;;;;;2.83;0.82;;;19.10;47.70;;;;;;4143648;28;20042;-85
2022/06/15 11:07:07;;;;;;;2.60;1.08;;;19.10;47.70;;;;;;4092373;28;20043;-85
2022/06/15 11:09:21;;;;;;;3.03;1.20;;;19.10;47.20;;;;;;4096196;28;20269;-85
2022/06/15 11:11:39;;;;;;;3.78;0.75;;;19.10;47.40;;;;;;4076542;29;20104;-84
2022/06/15 11:13:57;;;;;;;4.13;1.17;;;19.20;47.10;;;;;;4085937;28;20020;-85
2022/06/15 11:19:03;;;;;;;3.58;0.80;;;19.30;47.30;;;;;;4094157;28;20036;-85
2022/06/15 11:21:39;;;;;;;3.15;0.73;;;19.40;47.40;;;;;;4091195;28;20046;-85
2022/06/15 11:23:55;;;;;;;2.55;0.90;;;19.50;46.30;;;;;;4074543;29;20035;-85
2022/06/15 11:29:20;;;;;;;1.80;0.70;;;19.70;46.30;;;;;;4077113;29;20055;-86
2022/06/15 11:31:37;;;;;;;3.20;0.60;;;19.80;45.80;;;;;;4099590;28;20043;-84
2022/06/15 11:33:49;;;;;;;2.00;0.65;;;19.90;45.40;;;;;;4090206;28;20031;-85
2022/06/15 11:36:26;;;;;;;4.65;0.80;;;20.00;45.40;;;;;;4083120;28;20148;-86
2022/06/15 11:39:07;;;;;;;4.68;0.77;;;20.00;45.30;;;;;;4079705;28;20043;-85
2022/06/15 11:41:29;;;;;;;5.95;0.90;;;20.10;45.60;;;;;;4093360;28;20045;-85
2022/06/15 11:44:03;;;;;;;;;;;;;;;;;;;;;
2022/06/15 11:47:05;;;;;;;4.25;1.02;;;20.10;45.40;;;;;;4144224;28;20037;-85
2022/06/15 11:50:17;;;;;;;5.93;1.05;;;20.10;45.40;;;;;;4140266;28;20129;-85
2022/06/15 11:52:55;;;;;;;2.22;0.65;;;20.00;44.80;;;;;;4061445;29;20033;-84
2022/06/15 11:55:26;;;;;;;4.70;0.70;;;20.00;45.40;;;;;;4063907;29;20111;-84
2022/06/15 12:01:10;;;;;;;4.85;0.95;;;19.90;45.40;;;;;;4075394;29;20040;-86
2022/06/15 12:04:05;;;;;;;3.67;0.88;;;19.80;45.40;;;;;;4061593;29;20119;-84
2022/06/15 12:06:39;;;;;;;5.72;0.90;;;19.70;45.90;;;;;;4083073;29;20027;-84
2022/06/15 12:09:38;;;;;;;6.03;0.90;;;19.70;45.40;;;;;;4052119;29;20044;-85
2022/06/15 12:14:41;;;;;;;;;;;;;;;;;;;;;
2022/06/15 12:16:54;;;;;;;3.88;0.80;;;19.80;45.90;;;;;;4077478;29;20940;-84
2022/06/15 12:22:23;;;;;;;4.32;0.80;;;19.90;46.00;;;;;;4074702;29;20088;-86
2022/06/15 12:24:44;;;;;;;1.42;0.65;;;20.00;45.50;;;;;;4075687;29;20027;-84
2022/06/15 12:27:25;;;;;;;3.97;0.88;;;19.90;45.10;;;;;;4062190;29;20115;-84
2022/06/15 12:29:51;;;;;;;3.97;0.90;;;20.00;44.40;;;;;;4073563;28;20074;-85
2022/06/15 12:35:00;;;;;;;2.38;0.80;;;20.00;44.60;;;;;;4111157;28;20429;-86
2022/06/15 12:37:31;;;;;;;4.07;0.85;;;20.10;44.60;;;;;;4107701;28;20031;-85